Sid Moller — WDF9421 — position and weather

sailwx.info

Track history (hours):
 
Tides and Currents Weather Stations Pressure Air Temp Water Temp Dewpoint Dewpoint Depression Visibility Wind Speed Wind Dir Waves Ship Positions

Sid Moller

Owner: Genesis Marine, LLC, Houston, TX. More information available from US FCC via Universal Licensing System and Coast Guard Vessel Documentation Center.

Last reported at 2014-Oct-25 09:33 UTC. Time now 2014-Oct-25 09:38 UTC.
Position N 29°37' W 095°01'.

; draft 2.7 m.

Type: Towing. MMSI: 367504980.

Date/timePositionNaut miles runAvg speedWind from/ knotsBaromVisibWave heightAir tempDewpointWater temp
2014-Oct-25 09:33N 29°37' W 095°01'0 0.0
2014-Oct-25 08:33N 29°37' W 095°01'0 0.0
2014-Oct-25 07:33N 29°37' W 095°01'0 0.0
2014-Oct-25 06:33N 29°37' W 095°01'0 0.0
2014-Oct-25 05:33N 29°37' W 095°01'0 0.0
2014-Oct-25 04:33N 29°37' W 095°01'0 0.0
2014-Oct-25 03:33N 29°37' W 095°01'0 0.0
2014-Oct-25 02:33N 29°37' W 095°01'0 0.0
2014-Oct-25 01:33N 29°37' W 095°01'0 0.0
2014-Oct-25 00:33N 29°37' W 095°01'0 0.0
2014-Oct-24 23:33N 29°37' W 095°01'0 0.0
2014-Oct-24 22:33N 29°37' W 095°01'0 0.0
2014-Oct-24 21:33N 29°37' W 095°01'0 0.0
2014-Oct-24 20:33N 29°37' W 095°01'0 0.0
2014-Oct-24 19:33N 29°37' W 095°01'0 0.0
2014-Oct-24 18:33N 29°37' W 095°01'0 0.0
2014-Oct-24 17:33N 29°37' W 095°01'0 0.0
2014-Oct-24 16:33N 29°37' W 095°01'0 0.0
2014-Oct-24 15:33N 29°37' W 095°01'0 0.1
2014-Oct-24 14:33N 29°37' W 095°01'4 4.5
2014-Oct-24 13:33N 29°36' W 094°56'6 6.5
2014-Oct-24 12:33N 29°30' W 094°52'6 6.0
2014-Oct-24 11:30N 29°24' W 094°49'3 3.2
2014-Oct-24 10:31N 29°23' W 094°46'3 3.5
2014-Oct-24 09:31N 29°26' W 094°43'4 3.9
2014-Oct-24 08:30N 29°28' W 094°39'5 4.4
2014-Oct-24 07:26N 29°30' W 094°34'7 3.2
2014-Oct-24 05:11N 29°34' W 094°27'3 3.8
2014-Oct-24 04:29N 29°35' W 094°25'  
2014-Oct-18 16:26N 29°24' W 094°44'3 3.7
2014-Oct-18 15:32N 29°22' W 094°47'5 4.8
2014-Oct-18 14:33N 29°23' W 094°53'1 0.7
2014-Oct-18 13:33N 29°23' W 094°53'0 0.0
2014-Oct-18 12:33N 29°23' W 094°53'0 0.0
2014-Oct-18 11:33N 29°23' W 094°53'0 0.0
2014-Oct-18 10:28N 29°23' W 094°53'0 0.0
2014-Oct-18 09:23N 29°23' W 094°53'0 0.0
2014-Oct-17 12:32N 29°23' W 094°53'2 2.2
2014-Oct-17 11:31N 29°22' W 094°51'5 0.5
2014-Oct-17 01:29N 29°24' W 094°45'0 0.0
2014-Oct-16 17:14N 29°24' W 094°45'0 0.0
2014-Oct-16 15:11N 29°24' W 094°45'0 0.3
2014-Oct-16 14:26N 29°24' W 094°45'3 3.4
2014-Oct-16 13:27N 29°21' W 094°47'  
Track history (hours):
 
Tides and Currents Weather Stations Pressure Air Temp Water Temp Dewpoint Dewpoint Depression Visibility Wind Speed Wind Dir Waves Ship Positions

Sid Moller

Owner: Genesis Marine, LLC, Houston, TX. More information available from US FCC via Universal Licensing System and Coast Guard Vessel Documentation Center.

Last reported at 2014-Oct-25 09:33 UTC. Time now 2014-Oct-25 09:38 UTC.
Position N 29°37' W 095°01'.

; draft 2.7 m.

Type: Towing. MMSI: 367504980.

Date/timePositionNaut miles runAvg speedWind from/ knotsBaromVisibWave heightAir tempDewpointWater temp
2014-Oct-25 09:33N 29°37' W 095°01'0 0.0
2014-Oct-25 08:33N 29°37' W 095°01'0 0.0
2014-Oct-25 07:33N 29°37' W 095°01'0 0.0
2014-Oct-25 06:33N 29°37' W 095°01'0 0.0
2014-Oct-25 05:33N 29°37' W 095°01'0 0.0
2014-Oct-25 04:33N 29°37' W 095°01'0 0.0
2014-Oct-25 03:33N 29°37' W 095°01'0 0.0
2014-Oct-25 02:33N 29°37' W 095°01'0 0.0
2014-Oct-25 01:33N 29°37' W 095°01'0 0.0
2014-Oct-25 00:33N 29°37' W 095°01'0 0.0
2014-Oct-24 23:33N 29°37' W 095°01'0 0.0
2014-Oct-24 22:33N 29°37' W 095°01'0 0.0
2014-Oct-24 21:33N 29°37' W 095°01'0 0.0
2014-Oct-24 20:33N 29°37' W 095°01'0 0.0
2014-Oct-24 19:33N 29°37' W 095°01'0 0.0
2014-Oct-24 18:33N 29°37' W 095°01'0 0.0
2014-Oct-24 17:33N 29°37' W 095°01'0 0.0
2014-Oct-24 16:33N 29°37' W 095°01'0 0.0
2014-Oct-24 15:33N 29°37' W 095°01'0 0.1
2014-Oct-24 14:33N 29°37' W 095°01'4 4.5
2014-Oct-24 13:33N 29°36' W 094°56'6 6.5
2014-Oct-24 12:33N 29°30' W 094°52'6 6.0
2014-Oct-24 11:30N 29°24' W 094°49'3 3.2
2014-Oct-24 10:31N 29°23' W 094°46'3 3.5
2014-Oct-24 09:31N 29°26' W 094°43'4 3.9
2014-Oct-24 08:30N 29°28' W 094°39'5 4.4
2014-Oct-24 07:26N 29°30' W 094°34'7 3.2
2014-Oct-24 05:11N 29°34' W 094°27'3 3.8
2014-Oct-24 04:29N 29°35' W 094°25'  
2014-Oct-18 16:26N 29°24' W 094°44'3 3.7
2014-Oct-18 15:32N 29°22' W 094°47'5 4.8
2014-Oct-18 14:33N 29°23' W 094°53'1 0.7
2014-Oct-18 13:33N 29°23' W 094°53'0 0.0
2014-Oct-18 12:33N 29°23' W 094°53'0 0.0
2014-Oct-18 11:33N 29°23' W 094°53'0 0.0
2014-Oct-18 10:28N 29°23' W 094°53'0 0.0
2014-Oct-18 09:23N 29°23' W 094°53'0 0.0
2014-Oct-17 12:32N 29°23' W 094°53'2 2.2
2014-Oct-17 11:31N 29°22' W 094°51'5 0.5
2014-Oct-17 01:29N 29°24' W 094°45'0 0.0
2014-Oct-16 17:14N 29°24' W 094°45'0 0.0
2014-Oct-16 15:11N 29°24' W 094°45'0 0.3
2014-Oct-16 14:26N 29°24' W 094°45'3 3.4
2014-Oct-16 13:27N 29°21' W 094°47'  

Dump ship's entire track history